»·PEaware :: SWA4512 KPDX-KLAX

SWA4512 :: KPDX-KLAX

FLIGHT INFORMATION

Flight Status: Arrived
Operator:
Southwest Airlines
More flights by this operator :: More flights under this callsign
Pilot: Andrew M. (139)
Aircraft: BOEING 737-800
(B738)
More flights by this aircraft type
Origin: KPDX Portland Intl
United States
Destination: KLAX Los Angeles Intl
United States
More flights between these airports :: More routes between these airports
Route: +HRMNS5 HRMNS J189 LIN BURGL IRNMN2
File this flight plan on PilotEdge
Remarks: PBN / A1B1C1D1S1S2 NAV / RNVD1E2A1 REG / N608BT EET / KZOA0045 KZLA0133 RMK / SIMBRIEF
Altitude:
(Current/Filed)
35,000ft
Speed:
(Current/Filed)
449kts
Departed: 11-Jan-19 05:57 PM
Arrived: 11-Jan-19 08:04 PM
Distance/Time
Traveled:
724nm/2:07
Distance/Time
To Go:
Arrived

Flight Plot

Page will automatically refresh every two minutes.

Flight plan parsing failed; only flown route is shown


Map Options




Map Legend


Flown Route
Filed Route
Departure Airport
Arrival Airport
Navaid (VOR, NDB)
Fix

Horizontal Profiles

Position Reports

Time Latitude Longitude Heading Altitude Ground
Speed
11-Jan-19 17:17 45.589049 -122.597901 18 24ft 0kts
11-Jan-19 17:18 45.589049 -122.597901 18 24ft 0kts
11-Jan-19 17:19 45.589049 -122.597901 18 24ft 0kts
11-Jan-19 17:20 45.589049 -122.597901 18 24ft 0kts
11-Jan-19 17:21 45.589049 -122.597901 18 24ft 0kts
11-Jan-19 17:22 45.589049 -122.597901 18 24ft 0kts
11-Jan-19 17:23 45.589049 -122.597901 18 24ft 0kts
11-Jan-19 17:24 45.589049 -122.597901 18 24ft 0kts
11-Jan-19 17:25 45.589049 -122.597901 18 24ft 0kts
11-Jan-19 17:26 45.589049 -122.597901 18 24ft 0kts
11-Jan-19 17:27 45.589049 -122.597901 18 24ft 0kts
11-Jan-19 17:28 45.589049 -122.597901 18 24ft 0kts
11-Jan-19 17:29 45.589049 -122.597901 18 24ft 0kts
11-Jan-19 17:30 45.589049 -122.597901 18 24ft 0kts
11-Jan-19 17:31 45.589049 -122.597901 18 24ft 0kts
11-Jan-19 17:32 45.589049 -122.597901 18 24ft 0kts
11-Jan-19 17:33 45.589049 -122.597901 18 24ft 0kts
11-Jan-19 17:34 45.589049 -122.597901 18 24ft 0kts
11-Jan-19 17:35 45.589049 -122.597901 18 24ft 0kts
11-Jan-19 17:36 45.589049 -122.597901 18 24ft 0kts
11-Jan-19 17:37 45.589049 -122.597901 18 24ft 0kts
11-Jan-19 17:38 45.589049 -122.597901 18 24ft 0kts
11-Jan-19 17:39 45.589049 -122.597901 18 24ft 0kts
11-Jan-19 17:40 45.589049 -122.597901 18 24ft 0kts
11-Jan-19 17:41 45.589049 -122.597901 18 24ft 0kts
11-Jan-19 17:42 45.588673 -122.598079 18 24ft 2kts
11-Jan-19 17:43 45.588154 -122.598131 319 24ft 2kts
11-Jan-19 17:44 45.588052 -122.597933 298 23ft 0kts
11-Jan-19 17:45 45.588052 -122.597933 298 23ft 0kts
11-Jan-19 17:46 45.588052 -122.597933 298 23ft 0kts
11-Jan-19 17:47 45.588052 -122.597933 298 23ft 0kts
11-Jan-19 17:48 45.588158 -122.598221 294 24ft 4kts
11-Jan-19 17:49 45.588798 -122.601958 298 22ft 13kts
11-Jan-19 17:50 45.591206 -122.606573 303 24ft 16kts
11-Jan-19 17:51 45.593586 -122.612711 298 24ft 20kts
11-Jan-19 17:52 45.596155 -122.619212 298 24ft 12kts
11-Jan-19 17:53 45.596145 -122.620455 227 24ft 0kts
11-Jan-19 17:54 45.596099 -122.620521 224 24ft 2kts
11-Jan-19 17:55 45.594835 -122.620667 119 24ft 2kts
11-Jan-19 17:57 45.588090 -122.603339 118 21ft 138kts
11-Jan-19 17:58 45.571002 -122.548084 96 1240ft 172kts
11-Jan-19 17:59 45.567412 -122.469299 96 2208ft 233kts
11-Jan-19 18:00 45.550668 -122.374618 107 4298ft 251kts
11-Jan-19 18:01 45.500621 -122.314615 164 6605ft 258kts
11-Jan-19 18:02 45.428850 -122.312519 185 8708ft 265kts
11-Jan-19 18:03 45.354756 -122.325142 185 10302ft 284kts
11-Jan-19 18:04 45.272592 -122.338456 186 11986ft 301kts
11-Jan-19 18:05 45.188035 -122.352065 186 14040ft 311kts
11-Jan-19 18:06 45.100408 -122.366100 186 16179ft 322kts
11-Jan-19 18:07 45.010260 -122.380474 186 18205ft 332kts
11-Jan-19 18:08 44.917022 -122.383361 171 20077ft 343kts
11-Jan-19 18:09 44.823568 -122.360009 171 21820ft 352kts
11-Jan-19 18:10 44.726009 -122.335795 171 23438ft 362kts
11-Jan-19 18:11 44.625581 -122.311015 171 24925ft 371kts
11-Jan-19 18:12 44.523267 -122.285883 170 26378ft 376kts
11-Jan-19 18:13 44.419043 -122.260386 170 27678ft 382kts
11-Jan-19 18:14 44.313414 -122.234689 170 28902ft 388kts
11-Jan-19 18:15 44.206562 -122.208785 170 29978ft 395kts
11-Jan-19 18:15 44.116003 -122.186874 170 30905ft 398kts
11-Jan-19 18:16 44.007026 -122.160551 170 32150ft 395kts
11-Jan-19 18:18 43.884562 -122.131098 170 33362ft 392kts
11-Jan-19 18:19 43.776365 -122.105173 170 34313ft 389kts
11-Jan-19 18:19 43.687248 -122.083884 170 34878ft 390kts
11-Jan-19 18:20 43.578957 -122.058112 170 35024ft 404kts
11-Jan-19 18:21 43.467815 -122.031752 170 35028ft 403kts
11-Jan-19 18:22 43.357118 -122.005620 170 35037ft 403kts
11-Jan-19 18:23 43.245610 -121.979408 170 35045ft 407kts
11-Jan-19 18:24 43.134173 -121.953300 170 35047ft 407kts
11-Jan-19 18:25 43.022437 -121.927218 170 35037ft 407kts
11-Jan-19 18:26 42.910807 -121.901253 170 35039ft 407kts
11-Jan-19 18:27 42.801848 -121.875985 170 35048ft 407kts
11-Jan-19 18:28 42.690310 -121.850190 170 35046ft 407kts
11-Jan-19 18:29 42.578647 -121.824459 170 35039ft 407kts
11-Jan-19 18:30 42.467067 -121.798837 170 35036ft 406kts
11-Jan-19 18:31 42.356063 -121.773447 170 35034ft 406kts
11-Jan-19 18:32 42.244524 -121.748044 170 35033ft 406kts
11-Jan-19 18:33 42.132973 -121.723053 171 35032ft 406kts
11-Jan-19 18:34 42.021551 -121.702278 171 35034ft 405kts
11-Jan-19 18:35 41.909856 -121.681532 171 35038ft 406kts
11-Jan-19 18:36 41.799067 -121.660956 171 35048ft 406kts
11-Jan-19 18:37 41.686984 -121.640180 171 35047ft 406kts
11-Jan-19 18:38 41.574734 -121.619427 171 35045ft 406kts
11-Jan-19 18:39 41.463059 -121.598840 171 35045ft 408kts
11-Jan-19 18:40 41.350532 -121.578162 171 35031ft 407kts
11-Jan-19 18:41 41.238192 -121.557577 171 35015ft 408kts
11-Jan-19 18:42 41.125809 -121.537047 171 35014ft 408kts
11-Jan-19 18:43 41.013562 -121.516613 171 35012ft 408kts
11-Jan-19 18:44 40.901287 -121.496228 171 35011ft 408kts
11-Jan-19 18:45 40.791592 -121.476360 171 35020ft 408kts
11-Jan-19 18:46 40.679388 -121.456062 171 35025ft 407kts
11-Jan-19 18:47 40.567320 -121.435862 171 35027ft 407kts
11-Jan-19 18:48 40.455659 -121.415809 171 35026ft 407kts
11-Jan-19 18:49 40.343181 -121.395682 171 35024ft 407kts
11-Jan-19 18:50 40.231332 -121.375741 171 35011ft 407kts
11-Jan-19 18:51 40.119269 -121.355859 171 34995ft 406kts
11-Jan-19 18:52 40.007453 -121.336143 172 34996ft 407kts
11-Jan-19 18:53 39.897977 -121.316940 172 34995ft 406kts
11-Jan-19 18:54 39.786984 -121.297485 171 35003ft 405kts
11-Jan-19 18:55 39.675435 -121.277926 171 35002ft 406kts
11-Jan-19 18:56 39.563687 -121.258392 171 34995ft 406kts
11-Jan-19 18:57 39.451896 -121.238909 171 34990ft 406kts
11-Jan-19 18:58 39.340123 -121.219526 171 34989ft 406kts
11-Jan-19 18:59 39.228541 -121.200256 171 34995ft 405kts
11-Jan-19 19:00 39.117031 -121.181056 171 35000ft 405kts
11-Jan-19 19:01 39.005652 -121.161925 171 35003ft 405kts
11-Jan-19 19:02 38.896781 -121.143242 171 34998ft 404kts
11-Jan-19 19:03 38.787873 -121.124622 171 35006ft 405kts
11-Jan-19 19:04 38.676622 -121.105666 171 35005ft 405kts
11-Jan-19 19:05 38.565445 -121.086778 171 35006ft 404kts
11-Jan-19 19:06 38.454250 -121.067945 171 34998ft 395kts
11-Jan-19 19:07 38.343901 -121.049323 171 34999ft 404kts
11-Jan-19 19:08 38.232720 -121.030624 171 34989ft 404kts
11-Jan-19 19:09 38.121482 -121.011976 171 34989ft 404kts
11-Jan-19 19:10 38.012197 -120.981521 163 34993ft 404kts
11-Jan-19 19:11 37.904995 -120.939814 163 34993ft 404kts
11-Jan-19 19:12 37.800477 -120.899576 163 34985ft 403kts
11-Jan-19 19:13 37.692952 -120.858475 163 34975ft 405kts
11-Jan-19 19:14 37.585685 -120.817650 163 34973ft 403kts
11-Jan-19 19:15 37.478564 -120.777035 163 34972ft 402kts
11-Jan-19 19:16 37.371314 -120.736509 163 34970ft 404kts
11-Jan-19 19:17 37.264078 -120.696095 163 34970ft 403kts
11-Jan-19 19:18 37.156609 -120.655693 163 34968ft 402kts
11-Jan-19 19:19 37.049307 -120.615415 163 34966ft 403kts
11-Jan-19 19:20 36.942387 -120.575395 163 34965ft 403kts
11-Jan-19 19:21 36.837085 -120.536100 163 34976ft 403kts
11-Jan-19 19:22 36.729857 -120.496221 163 34974ft 403kts
11-Jan-19 19:23 36.622520 -120.456437 164 34973ft 403kts
11-Jan-19 19:24 36.515074 -120.416768 164 34966ft 402kts
11-Jan-19 19:25 36.407955 -120.377336 164 34962ft 402kts
11-Jan-19 19:26 36.302718 -120.338721 164 34961ft 402kts
11-Jan-19 19:27 36.195424 -120.299584 164 34959ft 401kts
11-Jan-19 19:28 36.088416 -120.260617 164 34958ft 401kts
11-Jan-19 19:29 35.981948 -120.221940 165 34958ft 401kts
11-Jan-19 19:30 35.877543 -120.184086 165 34976ft 402kts
11-Jan-19 19:31 35.770788 -120.145473 165 34976ft 402kts
11-Jan-19 19:32 35.664156 -120.104571 156 34981ft 403kts
11-Jan-19 19:33 35.567125 -120.033864 151 34975ft 407kts
11-Jan-19 19:34 35.473971 -119.954318 147 34980ft 410kts
11-Jan-19 19:35 35.380905 -119.872792 147 35000ft 411kts
11-Jan-19 19:36 35.287411 -119.791125 148 35006ft 412kts
11-Jan-19 19:37 35.193907 -119.709684 148 35005ft 414kts
11-Jan-19 19:38 35.100501 -119.628548 148 34149ft 410kts
11-Jan-19 19:39 35.008116 -119.548559 148 32407ft 409kts
11-Jan-19 19:40 34.915533 -119.468690 148 30190ft 406kts
11-Jan-19 19:41 34.822493 -119.388704 148 28021ft 416kts
11-Jan-19 19:42 34.729294 -119.308828 149 25901ft 423kts
11-Jan-19 19:43 34.632967 -119.226442 149 24085ft 406kts
11-Jan-19 19:44 34.547137 -119.152084 148 22330ft 379kts
11-Jan-19 19:45 34.463846 -119.078314 147 19632ft 363kts
11-Jan-19 19:46 34.383717 -119.008274 147 17308ft 348kts
11-Jan-19 19:47 34.306723 -118.940458 146 15112ft 335kts
11-Jan-19 19:48 34.233775 -118.874121 145 13078ft 323kts
11-Jan-19 19:49 34.166321 -118.812025 145 12181ft 284kts
11-Jan-19 19:50 34.109270 -118.751244 140 11150ft 263kts
11-Jan-19 19:51 34.055970 -118.693068 139 10008ft 253kts
11-Jan-19 19:52 34.023857 -118.621194 99 8876ft 254kts
11-Jan-19 19:53 34.017069 -118.537892 99 7697ft 258kts
11-Jan-19 19:54 34.010213 -118.462773 99 7048ft 226kts
11-Jan-19 19:55 34.020220 -118.395593 80 6317ft 222kts
11-Jan-19 19:56 34.030113 -118.335140 87 5489ft 216kts
11-Jan-19 19:57 34.037190 -118.264982 85 4560ft 214kts
11-Jan-19 19:58 34.012472 -118.205979 150 3502ft 212kts
11-Jan-19 19:59 33.961298 -118.217136 240 2930ft 227kts
11-Jan-19 20:00 33.968271 -118.287953 266 2042ft 229kts
11-Jan-19 20:01 33.957612 -118.349083 262 1021ft 162kts
11-Jan-19 20:02 33.952553 -118.397309 262 223ft 148kts
11-Jan-19 20:03 33.949698 -118.424568 251 116ft 18kts
11-Jan-19 20:04 33.947055 -118.427781 191 109ft 10kts
11-Jan-19 20:05 33.946509 -118.425530 82 111ft 11kts

Navigation Log

Ident Type
Flight plan parsing failed, navigation log unavailable